»·PEaware :: UAL5546 KASE-KDEN

UAL5546 :: KASE-KDEN

FLIGHT INFORMATION

Flight Status: Arrived
Operator:
United Airlines
More flights by this operator :: More flights under this callsign
Pilot: Graham S. (10862)
Aircraft: BOEING 737-300
(B733)
More flights by this aircraft type
Origin: KASE Aspen-Pitkin Co/Sardy
United States
Destination: KDEN Denver Intl
United States
More flights between these airports :: More routes between these airports
Route: LINDZ8 DBL DCT JNETT TELLR2
File this flight plan on PilotEdge
Remarks:
Altitude:
(Current/Filed)
21,000ft
Speed:
(Current/Filed)
380kts
Departed: 07-Jan-18 08:25 AM
Arrived: 07-Jan-18 09:06 AM
Distance/Time
Traveled:
109nm/0:41
Distance/Time
To Go:
Arrived

Flight Plot

Page will automatically refresh every two minutes.

Flight plan parsing failed; only flown route is shown


Map Options




Map Legend


Flown Route
Filed Route
Departure Airport
Arrival Airport
Navaid (VOR, NDB)
Fix

Horizontal Profiles

Position Reports

Time Latitude Longitude Heading Altitude Ground
Speed
07-Jan-18 08:14 39.218551 -106.864163 248 7825ft 0kts
07-Jan-18 08:15 39.218551 -106.864163 248 7825ft 0kts
07-Jan-18 08:16 39.218551 -106.864163 248 7825ft 0kts
07-Jan-18 08:17 39.218551 -106.864163 248 7825ft 0kts
07-Jan-18 08:18 39.218551 -106.864163 248 7825ft 0kts
07-Jan-18 08:19 39.218551 -106.864163 248 7825ft 0kts
07-Jan-18 08:20 39.218551 -106.864163 248 7825ft 0kts
07-Jan-18 08:21 39.218551 -106.864163 248 7825ft 0kts
07-Jan-18 08:22 39.218551 -106.864163 248 7825ft 0kts
07-Jan-18 08:23 39.218551 -106.864163 248 7825ft 0kts
07-Jan-18 08:24 39.218551 -106.864163 248 7825ft 0kts
07-Jan-18 08:25 39.218551 -106.864163 248 7825ft 0kts
07-Jan-18 08:26 39.218551 -106.864163 248 7825ft 0kts
07-Jan-18 08:27 39.218551 -106.864163 248 7825ft 0kts
07-Jan-18 08:28 39.218512 -106.864284 246 7825ft 3kts
07-Jan-18 08:29 39.214840 -106.863663 159 7825ft 22kts
07-Jan-18 08:30 39.212313 -106.862923 234 7825ft 9kts
07-Jan-18 08:31 39.215223 -106.865166 339 7825ft 72kts
07-Jan-18 08:35 39.218842 -106.864884 146 7825ft 0kts
07-Jan-18 08:36 39.217911 -106.865030 175 7825ft 8kts
07-Jan-18 08:37 39.214078 -106.863253 161 7825ft 17kts
07-Jan-18 08:38 39.212904 -106.863993 341 7825ft 28kts
07-Jan-18 08:39 39.248668 -106.881871 340 8307ft 210kts
07-Jan-18 08:40 39.309409 -106.918465 322 10289ft 242kts
07-Jan-18 08:41 39.321124 -106.997229 267 11797ft 261kts
07-Jan-18 08:42 39.352681 -107.080458 301 13135ft 261kts
07-Jan-18 08:43 39.408823 -107.128320 359 15659ft 249kts
07-Jan-18 08:44 39.468654 -107.079018 68 16754ft 298kts
07-Jan-18 08:45 39.457150 -106.966580 107 17873ft 347kts
07-Jan-18 08:46 39.428729 -106.843270 104 19708ft 369kts
07-Jan-18 08:47 39.401315 -106.711460 101 21215ft 397kts
07-Jan-18 08:48 39.370651 -106.564823 101 21205ft 438kts
07-Jan-18 08:49 39.349037 -106.417079 91 21146ft 409kts
07-Jan-18 08:50 39.340400 -106.264886 109 21184ft 437kts
07-Jan-18 08:51 39.284574 -106.125374 119 21185ft 438kts
07-Jan-18 08:52 39.277675 -105.984894 64 20294ft 392kts
07-Jan-18 08:53 39.293476 -105.852279 81 18621ft 369kts
07-Jan-18 08:54 39.307629 -105.721760 79 17235ft 370kts
07-Jan-18 08:55 39.340317 -105.606701 56 17046ft 320kts
07-Jan-18 08:56 39.384683 -105.505909 56 17029ft 323kts
07-Jan-18 08:57 39.399357 -105.392886 84 16593ft 330kts
07-Jan-18 08:58 39.418359 -105.285511 99 15633ft 330kts
07-Jan-18 08:59 39.413264 -105.171484 89 14674ft 313kts
07-Jan-18 09:00 39.415724 -105.065021 88 13769ft 305kts
07-Jan-18 09:01 39.418871 -104.958375 88 12973ft 272kts
07-Jan-18 09:02 39.426026 -104.865148 84 12419ft 261kts
07-Jan-18 09:03 39.434142 -104.773208 84 11046ft 253kts
07-Jan-18 09:04 39.461631 -104.692951 34 10998ft 245kts
07-Jan-18 09:05 39.520915 -104.662940 25 11016ft 227kts
07-Jan-18 09:06 39.581719 -104.658402 350 10544ft 217kts
07-Jan-18 09:07 39.636950 -104.663700 359 9200ft 176kts
07-Jan-18 09:08 39.683679 -104.662367 0 8315ft 167kts
07-Jan-18 09:09 39.729657 -104.661765 359 7412ft 165kts
07-Jan-18 09:10 39.775252 -104.661390 359 6542ft 162kts
07-Jan-18 09:11 39.819425 -104.660631 359 5662ft 159kts
07-Jan-18 09:12 39.849122 -104.661633 336 5438ft 6kts
07-Jan-18 09:13 39.849775 -104.662146 322 5438ft 8kts
07-Jan-18 09:14 39.853458 -104.662437 0 5438ft 13kts
07-Jan-18 09:15 39.856648 -104.662609 302 5438ft 11kts
07-Jan-18 09:16 39.857056 -104.665866 339 5438ft 7kts
07-Jan-18 09:17 39.857475 -104.665903 357 5438ft 0kts
07-Jan-18 09:18 39.857475 -104.665903 357 5438ft 0kts

Navigation Log

Ident Type
Flight plan parsing failed, navigation log unavailable